METAR Data
IDs: Format: Raw Decoded Include TAF

Data at: 0747 UTC 09 Apr 2020

METAR for:KELA (Eagle Lake Arpt, TX, US)
Text:KELA 090735Z AUTO 00000KT 4SM BR OVC003 24/23 A2987 RMK AO2 T02360231
Temperature: 23.6°C ( 74°F)
Dewpoint: 23.1°C ( 74°F) [RH = 97%]
Pressure (altimeter):29.87 inches Hg (1011.6 mb)
Winds:calm
Visibility: 4 sm ( 6 km)
Ceiling:300 feet AGL
Clouds: overcast cloud deck at 300 feet AGL
Weather:BR (mist)
QC Flag:automated observation with no human augmentation

TAF for:KELA (Eagle Lake Arpt, TX, US)
Text:No data found